createdAt,value
2019-02-05T00:01:39.965Z,19.67
2019-02-05T00:04:09.670Z,19.23
2019-02-05T00:06:39.080Z,20.72
2019-02-05T00:09:10.939Z,19.37
2019-02-05T00:11:40.947Z,19.30
2019-02-05T00:14:10.582Z,19.32
2019-02-05T00:16:40.487Z,18.75
2019-02-05T00:19:20.408Z,18.90
2019-02-05T00:21:49.803Z,20.45
2019-02-05T00:24:19.214Z,19.77
2019-02-05T00:26:48.815Z,18.48
2019-02-05T00:29:18.657Z,18.98
2019-02-05T00:31:48.397Z,19.35
2019-02-05T00:34:17.972Z,19.37
2019-02-05T00:36:47.881Z,20.82
2019-02-05T00:39:17.537Z,19.87
2019-02-05T00:41:47.434Z,19.80
2019-02-05T00:44:17.923Z,18.45
2019-02-05T00:46:47.721Z,19.52
2019-02-05T00:49:17.301Z,18.37
2019-02-05T00:51:46.944Z,17.73
2019-02-05T00:54:16.437Z,20.92
2019-02-05T00:56:46.073Z,18.67
2019-02-05T00:59:15.735Z,20.40
2019-02-05T01:01:45.117Z,18.50
2019-02-05T01:04:14.468Z,19.48
2019-02-05T01:06:43.849Z,20.45
2019-02-05T01:09:13.939Z,20.43
2019-02-05T01:11:43.329Z,19.42
2019-02-05T01:14:13.136Z,19.82
2019-02-05T01:16:45.730Z,20.17
2019-02-05T01:19:15.372Z,19.87
2019-02-05T01:21:44.955Z,21.00
2019-02-05T01:24:14.761Z,20.37
2019-02-05T01:26:44.371Z,20.77
2019-02-05T01:29:14.015Z,20.82
2019-02-05T01:31:43.522Z,21.33
2019-02-05T01:34:13.026Z,18.80
2019-02-05T01:36:42.656Z,19.67
2019-02-05T01:39:12.079Z,19.98
2019-02-05T01:41:41.668Z,20.88
2019-02-05T01:44:11.497Z,20.10
2019-02-05T01:46:42.880Z,22.65
2019-02-05T01:49:12.643Z,20.65
2019-02-05T01:51:43.500Z,21.35
2019-02-05T01:54:13.354Z,19.32
2019-02-05T01:56:46.285Z,20.65
2019-02-05T01:59:15.786Z,19.82
2019-02-05T02:01:45.329Z,22.37
2019-02-05T02:04:14.793Z,20.55
2019-02-05T02:06:44.318Z,20.20
2019-02-05T02:09:13.689Z,20.80
2019-02-05T02:11:43.132Z,21.45
2019-02-05T02:14:12.746Z,19.27
2019-02-05T02:16:42.251Z,21.37
2019-02-05T02:19:14.630Z,20.10
2019-02-05T02:21:44.082Z,21.10
2019-02-05T02:24:13.618Z,19.32
2019-02-05T02:26:51.861Z,20.85
2019-02-05T02:29:16.422Z,18.82
2019-02-05T02:31:45.957Z,18.55
2019-02-05T02:34:15.529Z,20.55
2019-02-05T02:36:45.225Z,19.60
2019-02-05T02:39:16.374Z,19.62
2019-02-05T02:41:46.078Z,19.15
2019-02-05T02:44:23.243Z,19.67
2019-02-05T02:46:53.050Z,21.23
2019-02-05T02:49:23.253Z,21.35
2019-02-05T02:51:52.756Z,20.50
2019-02-05T02:54:22.126Z,19.48
2019-02-05T02:57:04.218Z,18.65
2019-02-05T02:59:23.166Z,19.52
2019-02-05T03:01:52.597Z,19.25
2019-02-05T03:04:22.496Z,20.17
2019-02-05T03:06:51.974Z,20.97
2019-02-05T03:09:21.550Z,19.98
2019-02-05T03:11:51.260Z,20.48
2019-02-05T03:14:23.146Z,22.42
2019-02-05T03:16:52.861Z,20.37
2019-02-05T03:19:22.950Z,21.33
2019-02-05T03:21:52.434Z,20.85
2019-02-05T03:24:21.767Z,21.10
2019-02-05T03:26:51.439Z,19.90
2019-02-05T03:29:20.875Z,19.57
2019-02-05T03:31:50.633Z,21.80
2019-02-05T03:34:20.142Z,19.57
2019-02-05T03:36:49.902Z,20.92
2019-02-05T03:39:19.610Z,19.30
2019-02-05T03:41:49.038Z,20.25
2019-02-05T03:44:18.520Z,23.55
2019-02-05T03:46:48.557Z,21.48
2019-02-05T03:49:18.385Z,20.88
2019-02-05T03:52:15.055Z,22.45
2019-02-05T03:55:24.330Z,21.42
2019-02-05T03:58:38.278Z,22.30
2019-02-05T04:01:41.073Z,22.40
2019-02-05T04:05:06.454Z,21.80
2019-02-05T04:08:26.300Z,20.48
2019-02-05T04:11:25.166Z,20.92
2019-02-05T04:14:45.408Z,21.85
2019-02-05T04:17:52.561Z,21.23
2019-02-05T04:20:48.336Z,21.50
2019-02-05T04:23:54.658Z,22.65
2019-02-05T04:26:35.118Z,22.00
2019-02-05T04:29:37.699Z,20.92
2019-02-05T04:32:26.198Z,21.95
2019-02-05T04:35:32.286Z,21.33
2019-02-05T04:39:01.013Z,21.02
2019-02-05T04:41:55.987Z,22.45
2019-02-05T04:45:16.343Z,22.30
2019-02-05T04:48:27.403Z,21.40
2019-02-05T04:51:33.117Z,22.22
2019-02-05T04:54:49.772Z,23.75
2019-02-05T04:57:57.368Z,23.00
2019-02-05T05:01:12.224Z,23.32
2019-02-05T05:04:13.150Z,25.27
2019-02-05T05:07:12.537Z,23.30
2019-02-05T05:09:50.495Z,22.58
2019-02-05T05:12:20.343Z,26.62
2019-02-05T05:14:49.792Z,24.77
2019-02-05T05:17:19.194Z,23.02
2019-02-05T05:19:48.886Z,24.15
2019-02-05T05:22:19.345Z,23.92
2019-02-05T05:24:49.194Z,23.22
2019-02-05T05:27:20.822Z,24.72
2019-02-05T05:29:50.971Z,25.35
2019-02-05T05:32:20.717Z,27.40
2019-02-05T05:34:50.267Z,25.43
2019-02-05T05:37:18.192Z,23.92
2019-02-05T05:39:49.053Z,24.15
2019-02-05T05:42:19.756Z,24.55
2019-02-05T05:44:49.325Z,25.90
2019-02-05T05:47:18.917Z,25.00
2019-02-05T05:49:48.354Z,27.00
2019-02-05T05:52:17.812Z,25.05
2019-02-05T05:54:47.268Z,24.05
2019-02-05T05:57:18.794Z,24.98
2019-02-05T05:59:48.182Z,23.75
2019-02-05T06:02:19.811Z,25.00
2019-02-05T06:04:49.656Z,24.18
2019-02-05T06:07:19.046Z,24.50
2019-02-05T06:09:48.757Z,22.85
2019-02-05T06:12:18.256Z,25.20
2019-02-05T06:14:48.311Z,24.80
2019-02-05T06:17:17.905Z,23.18
2019-02-05T06:19:47.756Z,24.20
2019-02-05T06:22:17.188Z,26.27
2019-02-05T06:24:46.910Z,25.62
2019-02-05T06:27:17.358Z,25.27
2019-02-05T06:29:47.320Z,22.62
2019-02-05T06:32:17.049Z,25.20
2019-02-05T06:34:46.937Z,25.48
2019-02-05T06:37:16.643Z,23.30
2019-02-05T06:39:46.729Z,23.85
2019-02-05T06:42:16.439Z,23.42
2019-02-05T06:44:46.702Z,24.98
2019-02-05T06:47:16.295Z,23.62
2019-02-05T06:49:45.730Z,22.80
2019-02-05T06:52:15.613Z,25.00
2019-02-05T06:54:45.593Z,22.87
2019-02-05T06:57:15.144Z,23.05
2019-02-05T06:59:45.087Z,22.05
2019-02-05T07:02:14.671Z,23.00
2019-02-05T07:04:44.626Z,22.95
2019-02-05T07:07:14.428Z,23.47
2019-02-05T07:09:43.896Z,23.20
2019-02-05T07:12:13.521Z,23.87
2019-02-05T07:14:43.278Z,22.50
2019-02-05T07:17:13.320Z,23.05
2019-02-05T07:19:42.804Z,21.73
2019-02-05T07:22:12.394Z,22.95
2019-02-05T07:24:41.796Z,22.70
2019-02-05T07:27:11.739Z,24.52
2019-02-05T07:29:41.723Z,21.97
2019-02-05T07:32:11.878Z,22.55
2019-02-05T07:34:41.404Z,22.80
2019-02-05T07:37:11.454Z,23.67
2019-02-05T07:39:41.214Z,23.15
2019-02-05T07:42:10.710Z,23.27
2019-02-05T07:44:40.216Z,28.50
2019-02-05T07:47:11.545Z,30.97
2019-02-05T07:49:41.491Z,28.15
2019-02-05T07:52:10.861Z,26.57
2019-02-05T07:54:40.671Z,28.30
2019-02-05T07:57:10.274Z,26.60
2019-02-05T07:59:39.665Z,25.23
2019-02-05T08:02:09.440Z,24.55
2019-02-05T08:04:39.497Z,27.42
2019-02-05T08:07:08.921Z,25.43
2019-02-05T08:09:38.649Z,26.75
2019-02-05T08:12:08.217Z,26.52
2019-02-05T08:14:37.715Z,24.40
2019-02-05T08:17:07.431Z,23.07
2019-02-05T08:19:37.058Z,25.23
2019-02-05T08:22:06.514Z,22.50
2019-02-05T08:24:36.397Z,22.52
2019-02-05T08:27:06.373Z,20.92
2019-02-05T08:29:36.144Z,20.75
2019-02-05T08:32:06.178Z,18.70
2019-02-05T08:34:36.171Z,18.57
2019-02-05T08:37:05.810Z,19.85
2019-02-05T08:39:35.579Z,21.65
2019-02-05T08:42:05.158Z,20.43
2019-02-05T08:44:34.874Z,19.62
2019-02-05T08:47:04.817Z,19.40
2019-02-05T08:49:34.400Z,19.70
2019-02-05T08:52:04.966Z,18.35
2019-02-05T08:54:34.602Z,18.37
2019-02-05T08:57:04.231Z,20.40
2019-02-05T08:59:34.037Z,18.57
2019-02-05T09:02:03.661Z,17.82
2019-02-05T09:04:33.565Z,17.70
2019-02-05T09:07:03.032Z,17.50
2019-02-05T09:09:32.804Z,17.20
2019-02-05T09:12:03.465Z,20.62
2019-02-05T09:14:33.273Z,19.07
2019-02-05T09:17:02.757Z,19.17
2019-02-05T09:19:32.199Z,18.77
2019-02-05T09:22:03.224Z,18.75
2019-02-05T09:24:36.026Z,20.88
2019-02-05T09:27:06.177Z,20.25
2019-02-05T09:29:36.546Z,18.23
2019-02-05T09:32:06.521Z,18.40
2019-02-05T09:34:36.205Z,19.80
2019-02-05T09:37:06.008Z,20.90
2019-02-05T09:39:36.763Z,18.98
2019-02-05T09:42:06.898Z,19.95
2019-02-05T09:44:36.565Z,18.82
2019-02-05T09:47:06.092Z,18.85
2019-02-05T09:49:35.489Z,18.52
2019-02-05T09:52:05.710Z,18.80
2019-02-05T09:54:35.381Z,18.40
2019-02-05T09:57:05.076Z,19.67
2019-02-05T09:59:44.890Z,18.27
2019-02-05T10:02:07.257Z,19.12
2019-02-05T10:04:36.704Z,19.02
2019-02-05T10:07:06.562Z,17.95
2019-02-05T10:09:35.960Z,18.00
2019-02-05T10:12:06.751Z,19.42
2019-02-05T10:14:36.527Z,19.75
2019-02-05T10:17:06.408Z,19.27
2019-02-05T10:19:35.935Z,18.57
2019-02-05T10:22:06.253Z,17.85
2019-02-05T10:24:37.424Z,18.15
2019-02-05T10:27:07.425Z,17.20
2019-02-05T10:29:37.215Z,20.48
2019-02-05T10:32:06.993Z,22.35
2019-02-05T10:34:36.730Z,21.97
2019-02-05T10:37:06.303Z,22.17
2019-02-05T10:39:36.129Z,24.30
2019-02-05T10:42:06.334Z,22.42
2019-02-05T10:44:36.518Z,19.85
2019-02-05T10:47:06.729Z,21.93
2019-02-05T10:49:36.266Z,22.52
2019-02-05T10:52:06.285Z,21.75
2019-02-05T10:54:37.058Z,20.43
2019-02-05T10:57:06.640Z,21.55
2019-02-05T10:59:36.848Z,21.70
2019-02-05T11:02:09.740Z,20.10
2019-02-05T11:04:39.731Z,19.42
2019-02-05T11:07:13.520Z,19.62
2019-02-05T11:09:43.166Z,19.10
2019-02-05T11:12:16.570Z,21.68
2019-02-05T11:14:46.438Z,19.32
2019-02-05T11:17:16.022Z,21.97
2019-02-05T11:19:46.920Z,19.52
2019-02-05T11:22:16.693Z,17.85
2019-02-05T11:24:48.394Z,18.73
2019-02-05T11:27:17.856Z,19.17
2019-02-05T11:29:47.716Z,18.50
2019-02-05T11:32:18.861Z,19.77
2019-02-05T11:34:48.350Z,20.37
2019-02-05T11:37:17.797Z,20.27
2019-02-05T11:39:47.543Z,20.57
2019-02-05T11:42:19.035Z,20.05
2019-02-05T11:44:52.538Z,19.82
2019-02-05T11:47:22.321Z,20.80
2019-02-05T11:49:52.965Z,21.75
2019-02-05T11:52:23.219Z,20.75
2019-02-05T11:54:53.171Z,19.90
2019-02-05T11:57:25.329Z,19.23
2019-02-05T11:59:54.521Z,19.75
2019-02-05T12:02:24.386Z,20.50
2019-02-05T12:04:53.901Z,20.48
2019-02-05T12:07:23.902Z,18.45
2019-02-05T12:09:54.995Z,18.65
2019-02-05T12:12:24.499Z,19.52
2019-02-05T12:14:54.374Z,22.05
2019-02-05T12:17:24.039Z,17.90
2019-02-05T12:19:55.642Z,19.35
2019-02-05T12:22:25.220Z,18.77
2019-02-05T12:24:55.462Z,20.23
2019-02-05T12:27:25.526Z,17.77
2019-02-05T12:29:55.263Z,19.15
2019-02-05T12:32:25.004Z,20.68
2019-02-05T12:34:54.628Z,19.10
2019-02-05T12:37:24.266Z,19.42
2019-02-05T12:39:53.748Z,19.92
2019-02-05T12:42:23.342Z,19.23
2019-02-05T12:44:52.746Z,19.77
2019-02-05T12:47:23.146Z,18.77
2019-02-05T12:49:52.605Z,20.55
2019-02-05T12:52:22.498Z,21.10
2019-02-05T12:54:52.208Z,20.30
2019-02-05T12:57:21.979Z,21.93
2019-02-05T12:59:51.601Z,22.07
2019-02-05T13:02:22.401Z,21.02
2019-02-05T13:04:52.107Z,19.77
2019-02-05T13:07:21.839Z,20.10
2019-02-05T13:09:51.517Z,19.48
2019-02-05T13:12:21.727Z,20.40
2019-02-05T13:14:51.585Z,18.77
2019-02-05T13:17:21.430Z,20.32
2019-02-05T13:19:51.320Z,19.35
2019-02-05T13:22:21.093Z,19.37
2019-02-05T13:24:50.812Z,18.10
2019-02-05T13:27:20.629Z,19.57
2019-02-05T13:29:50.833Z,19.07
2019-02-05T13:32:20.717Z,17.95
2019-02-05T13:34:50.765Z,19.27
2019-02-05T13:37:22.480Z,17.98
2019-02-05T13:39:52.270Z,18.70
2019-02-05T13:42:21.740Z,20.68
2019-02-05T13:44:51.133Z,17.75
2019-02-05T13:47:20.786Z,18.42
2019-02-05T13:49:50.769Z,19.42
2019-02-05T13:52:20.233Z,20.30
2019-02-05T13:54:49.612Z,19.48
2019-02-05T13:57:19.334Z,20.68
2019-02-05T13:59:48.935Z,18.98
2019-02-05T14:02:18.421Z,18.57
2019-02-05T14:04:48.335Z,19.15
2019-02-05T14:07:17.991Z,18.90
2019-02-05T14:09:47.649Z,21.12
2019-02-05T14:12:17.139Z,19.02
2019-02-05T14:14:47.101Z,18.48
2019-02-05T14:17:16.557Z,19.50
2019-02-05T14:19:46.415Z,18.12
2019-02-05T14:22:15.919Z,18.73
2019-02-05T14:24:45.340Z,17.65
2019-02-05T14:27:15.091Z,17.45
2019-02-05T14:29:44.533Z,18.85
2019-02-05T14:32:14.113Z,19.32
2019-02-05T14:34:44.070Z,19.30
2019-02-05T14:37:13.452Z,20.43
2019-02-05T14:39:43.422Z,19.73
2019-02-05T14:42:12.896Z,20.43
2019-02-05T14:44:42.776Z,18.87
2019-02-05T14:47:12.484Z,21.05
2019-02-05T14:49:42.112Z,20.05
2019-02-05T14:52:11.677Z,19.98
2019-02-05T14:54:41.370Z,19.75
2019-02-05T14:57:11.400Z,18.12
2019-02-05T14:59:42.799Z,18.92
2019-02-05T15:02:12.278Z,21.37
2019-02-05T15:04:41.779Z,19.90
2019-02-05T15:07:11.506Z,21.55
2019-02-05T15:09:42.012Z,20.05
2019-02-05T15:12:11.579Z,19.70
2019-02-05T15:14:41.096Z,19.17
2019-02-05T15:17:10.561Z,18.98
2019-02-05T15:19:40.038Z,20.77
2019-02-05T15:22:09.447Z,19.67
2019-02-05T15:24:40.989Z,20.25
2019-02-05T15:27:10.131Z,19.52
2019-02-05T15:29:41.318Z,19.85
2019-02-05T15:32:13.402Z,18.73
2019-02-05T15:34:42.949Z,20.17
2019-02-05T15:37:12.449Z,20.77
2019-02-05T15:39:42.289Z,21.68
2019-02-05T15:42:11.804Z,20.48
2019-02-05T15:44:41.535Z,21.90
2019-02-05T15:47:11.042Z,21.48
2019-02-05T15:49:40.769Z,21.42
2019-02-05T15:52:10.226Z,21.35
2019-02-05T15:54:39.914Z,20.32
2019-02-05T15:57:09.385Z,21.42
2019-02-05T15:59:39.166Z,21.85
2019-02-05T16:02:08.895Z,21.48
2019-02-05T16:04:38.423Z,21.50
2019-02-05T16:07:07.994Z,19.48
2019-02-05T16:09:37.951Z,20.43
2019-02-05T16:12:07.842Z,20.90
2019-02-05T16:14:37.625Z,21.17
2019-02-05T16:17:07.269Z,19.98
2019-02-05T16:19:37.218Z,20.70
2019-02-05T16:22:08.597Z,21.25
2019-02-05T16:24:38.289Z,22.00
2019-02-05T16:27:07.733Z,21.97
2019-02-05T16:29:37.337Z,22.95
2019-02-05T16:32:17.098Z,20.27
2019-02-05T16:34:38.009Z,20.32
2019-02-05T16:37:08.630Z,23.22
2019-02-05T16:39:38.144Z,21.35
2019-02-05T16:42:07.904Z,21.77
2019-02-05T16:44:37.642Z,20.25
2019-02-05T16:47:10.109Z,21.55
2019-02-05T16:49:41.177Z,22.40
2019-02-05T16:52:10.829Z,21.62
2019-02-05T16:54:40.517Z,21.50
2019-02-05T16:57:10.512Z,20.72
2019-02-05T16:59:40.322Z,22.67
2019-02-05T17:02:10.010Z,24.12
2019-02-05T17:04:40.052Z,22.82
2019-02-05T17:07:10.130Z,23.05
2019-02-05T17:09:39.791Z,24.87
2019-02-05T17:12:09.436Z,23.57
2019-02-05T17:14:38.899Z,21.73
2019-02-05T17:17:08.938Z,21.60
2019-02-05T17:19:39.279Z,21.62
2019-02-05T17:22:08.889Z,22.58
2019-02-05T17:24:42.558Z,21.30
2019-02-05T17:27:12.040Z,19.92
2019-02-05T17:29:41.576Z,22.70
2019-02-05T17:32:11.559Z,22.93
2019-02-05T17:34:41.183Z,23.18
2019-02-05T17:37:10.570Z,22.93
2019-02-05T17:39:40.141Z,21.60
2019-02-05T17:42:09.817Z,21.70
2019-02-05T17:44:39.357Z,22.32
2019-02-05T17:47:08.851Z,21.30
2019-02-05T17:49:38.981Z,22.70
2019-02-05T17:52:08.406Z,22.93
2019-02-05T17:54:39.004Z,22.17
2019-02-05T17:57:08.555Z,21.20
2019-02-05T17:59:44.016Z,23.05
2019-02-05T18:02:14.143Z,21.97
2019-02-05T18:04:43.877Z,24.02
2019-02-05T18:07:13.567Z,23.70
2019-02-05T18:09:43.791Z,20.95
2019-02-05T18:12:13.600Z,23.10
2019-02-05T18:14:43.053Z,25.20
2019-02-05T18:17:14.162Z,23.70
2019-02-05T18:19:43.770Z,23.40
2019-02-05T18:22:13.297Z,24.18
2019-02-05T18:24:42.703Z,26.85
2019-02-05T18:27:12.536Z,24.00
2019-02-05T18:29:42.058Z,25.50
2019-02-05T18:32:11.562Z,24.87
2019-02-05T18:34:41.712Z,24.77
2019-02-05T18:37:11.275Z,25.15
2019-02-05T18:39:41.074Z,26.05
2019-02-05T18:42:10.947Z,24.32
2019-02-05T18:44:41.583Z,26.37
2019-02-05T18:47:14.278Z,25.90
2019-02-05T18:49:43.332Z,26.80
2019-02-05T18:52:13.446Z,25.82
2019-02-05T18:54:43.704Z,25.82
2019-02-05T18:57:13.450Z,24.37
2019-02-05T18:59:43.492Z,24.27
2019-02-05T19:02:13.644Z,25.80
2019-02-05T19:04:43.474Z,25.72
2019-02-05T19:07:13.258Z,24.43
2019-02-05T19:09:43.281Z,24.12
2019-02-05T19:12:13.149Z,26.02
2019-02-05T19:14:42.836Z,27.22
2019-02-05T19:17:12.366Z,25.57
2019-02-05T19:19:42.016Z,26.90
2019-02-05T19:22:11.729Z,26.30
2019-02-05T19:25:00.305Z,25.35
2019-02-05T19:27:30.027Z,27.85
2019-02-05T19:29:59.519Z,25.45
2019-02-05T19:32:29.909Z,28.20
2019-02-05T19:34:59.653Z,25.45
2019-02-05T19:37:29.195Z,27.15
2019-02-05T19:39:59.009Z,25.90
2019-02-05T19:42:28.686Z,25.88
2019-02-05T19:45:15.022Z,25.97
2019-02-05T19:47:44.737Z,26.00
2019-02-05T19:50:14.719Z,27.98
2019-02-05T19:52:44.741Z,26.17
2019-02-05T19:55:15.121Z,27.80
2019-02-05T19:57:45.078Z,27.30
2019-02-05T20:00:15.776Z,26.77
2019-02-05T20:02:45.765Z,28.77
2019-02-05T20:05:16.343Z,28.80
2019-02-05T20:07:45.978Z,30.02
2019-02-05T20:10:16.085Z,28.15
2019-02-05T20:12:45.940Z,28.17
2019-02-05T20:15:19.524Z,28.60
2019-02-05T20:17:48.080Z,27.27
2019-02-05T20:20:17.855Z,29.00
2019-02-05T20:22:47.409Z,28.00
2019-02-05T20:25:17.780Z,28.40
2019-02-05T20:27:47.549Z,27.40
2019-02-05T20:30:17.764Z,28.17
2019-02-05T20:32:49.805Z,25.77
2019-02-05T20:35:25.224Z,26.68
2019-02-05T20:37:55.361Z,26.55
2019-02-05T20:40:25.414Z,26.52
2019-02-05T20:42:55.300Z,27.15
2019-02-05T20:45:24.997Z,26.85
2019-02-05T20:47:55.974Z,27.55
2019-02-05T20:50:26.397Z,28.30
2019-02-05T20:52:57.237Z,26.02
2019-02-05T20:55:26.843Z,26.90
2019-02-05T20:57:58.599Z,26.90
2019-02-05T21:00:28.354Z,27.30
2019-02-05T21:02:58.288Z,26.48
2019-02-05T21:05:27.770Z,28.00
2019-02-05T21:07:57.786Z,28.38
2019-02-05T21:10:27.776Z,27.87
2019-02-05T21:13:02.836Z,26.60
2019-02-05T21:15:32.785Z,27.20
2019-02-05T21:18:02.428Z,26.73
2019-02-05T21:20:33.975Z,28.47
2019-02-05T21:23:04.839Z,25.82
2019-02-05T21:25:34.758Z,27.98
2019-02-05T21:28:07.340Z,28.92
2019-02-05T21:30:37.127Z,27.58
2019-02-05T21:33:08.354Z,27.05
2019-02-05T21:35:38.395Z,26.95
2019-02-05T21:38:08.347Z,26.87
2019-02-05T21:40:38.058Z,28.00
2019-02-05T21:43:08.300Z,28.07
2019-02-05T21:45:38.285Z,28.25
2019-02-05T21:48:08.445Z,28.02
2019-02-05T21:50:38.326Z,26.15
2019-02-05T21:53:07.919Z,33.23
2019-02-05T21:55:37.838Z,28.12
2019-02-05T21:58:07.369Z,28.00
2019-02-05T22:00:37.031Z,30.75
2019-02-05T22:03:07.839Z,25.37
2019-02-05T22:05:37.496Z,26.68
2019-02-05T22:08:09.104Z,28.42
2019-02-05T22:10:38.649Z,26.40
2019-02-05T22:13:08.406Z,27.17
2019-02-05T22:15:37.900Z,27.07
2019-02-05T22:18:08.213Z,24.47
2019-02-05T22:20:38.209Z,27.98
2019-02-05T22:23:07.849Z,24.90
2019-02-05T22:25:37.557Z,26.27
2019-02-05T22:28:07.065Z,28.07
2019-02-05T22:30:37.166Z,27.17
2019-02-05T22:33:07.380Z,27.50
2019-02-05T22:35:40.176Z,28.35
2019-02-05T22:38:10.015Z,28.07
2019-02-05T22:40:40.537Z,25.35
2019-02-05T22:43:10.330Z,28.55
2019-02-05T22:45:41.120Z,26.12
2019-02-05T22:48:11.065Z,26.97
2019-02-05T22:50:40.813Z,27.50
2019-02-05T22:53:10.681Z,25.88
2019-02-05T22:55:40.265Z,27.07
2019-02-05T22:58:10.758Z,27.27
2019-02-05T23:01:18.726Z,28.12
2019-02-05T23:03:59.743Z,26.07
2019-02-05T23:06:59.775Z,26.70
2019-02-05T23:09:39.497Z,27.50
2019-02-05T23:12:36.958Z,26.35
2019-02-05T23:15:28.932Z,26.10
2019-02-05T23:17:57.893Z,26.30
2019-02-05T23:20:28.082Z,27.32
2019-02-05T23:22:57.963Z,27.27
2019-02-05T23:25:27.589Z,27.55
2019-02-05T23:27:58.681Z,27.37
2019-02-05T23:30:29.921Z,27.42
2019-02-05T23:33:00.065Z,30.68
2019-02-05T23:35:32.491Z,30.15
2019-02-05T23:38:03.114Z,30.17
2019-02-05T23:40:32.911Z,28.62
2019-02-05T23:43:02.298Z,28.73
2019-02-05T23:45:32.348Z,29.40
2019-02-05T23:48:01.760Z,27.45
2019-02-05T23:50:31.313Z,28.05
2019-02-05T23:53:00.807Z,26.17
2019-02-05T23:55:30.416Z,29.75
2019-02-05T23:58:00.252Z,28.75
